createdAt,value
2022-12-09T00:01:45.753Z,12.63
2022-12-09T00:04:13.490Z,12.73
2022-12-09T00:06:40.740Z,13.43
2022-12-09T00:09:13.908Z,12.68
2022-12-09T00:11:41.599Z,12.65
2022-12-09T00:14:10.600Z,12.88
2022-12-09T00:16:38.210Z,12.52
2022-12-09T00:19:05.412Z,12.20
2022-12-09T00:21:34.212Z,13.30
2022-12-09T00:24:03.857Z,12.40
2022-12-09T00:26:31.591Z,13.57
2022-12-09T00:28:59.403Z,11.75
2022-12-09T00:31:29.621Z,12.80
2022-12-09T00:33:58.970Z,12.88
2022-12-09T00:36:26.786Z,13.38
2022-12-09T00:38:56.746Z,12.85
2022-12-09T00:41:24.474Z,11.25
2022-12-09T00:43:54.516Z,12.37
2022-12-09T00:46:22.083Z,12.18
2022-12-09T00:48:49.392Z,11.70
2022-12-09T00:51:19.862Z,13.52
2022-12-09T00:53:47.765Z,12.52
2022-12-09T00:56:15.530Z,12.07
2022-12-09T00:58:42.981Z,12.98
2022-12-09T01:01:10.156Z,11.93
2022-12-09T01:03:37.651Z,11.90
2022-12-09T01:06:10.278Z,11.98
2022-12-09T01:08:39.372Z,11.43
2022-12-09T01:11:16.924Z,10.05
2022-12-09T01:13:45.723Z,12.40
2022-12-09T01:16:21.204Z,11.63
2022-12-09T01:18:49.451Z,11.93
2022-12-09T01:21:17.307Z,10.20
2022-12-09T01:23:44.862Z,11.77
2022-12-09T01:26:12.714Z,10.50
2022-12-09T01:28:41.025Z,10.25
2022-12-09T01:31:16.378Z,10.10
2022-12-09T01:33:44.093Z,9.17
2022-12-09T01:36:18.073Z,8.10
2022-12-09T01:38:46.624Z,7.90
2022-12-09T01:41:15.516Z,9.18
2022-12-09T01:43:43.954Z,9.60
2022-12-09T01:46:11.544Z,9.60
2022-12-09T01:48:42.961Z,10.02
2022-12-09T01:51:19.935Z,9.13
2022-12-09T01:53:50.212Z,9.68
2022-12-09T01:56:27.176Z,9.40
2022-12-09T01:58:57.724Z,9.67
2022-12-09T02:01:25.253Z,9.05
2022-12-09T02:03:52.588Z,9.45
2022-12-09T02:06:19.719Z,9.40
2022-12-09T02:08:49.746Z,10.23
2022-12-09T02:11:41.924Z,8.83
2022-12-09T02:14:23.770Z,9.18
2022-12-09T02:17:02.632Z,10.30
2022-12-09T02:19:56.195Z,10.30
2022-12-09T02:22:42.305Z,10.18
2022-12-09T02:25:19.237Z,9.57
2022-12-09T02:27:49.150Z,10.23
2022-12-09T02:30:21.414Z,11.32
2022-12-09T02:33:26.714Z,11.10
2022-12-09T02:35:57.435Z,10.30
2022-12-09T02:38:28.390Z,11.13
2022-12-09T02:41:00.996Z,10.70
2022-12-09T02:43:33.561Z,11.07
2022-12-09T02:46:02.297Z,12.70
2022-12-09T02:48:38.176Z,13.20
2022-12-09T02:51:09.728Z,14.27
2022-12-09T02:53:39.601Z,14.82
2022-12-09T02:56:09.035Z,16.48
2022-12-09T02:58:36.144Z,16.77
2022-12-09T03:01:04.553Z,17.08
2022-12-09T03:03:34.144Z,16.40
2022-12-09T03:06:07.480Z,16.35
2022-12-09T03:08:37.399Z,16.27
2022-12-09T03:11:10.613Z,16.38
2022-12-09T03:14:12.027Z,17.10
2022-12-09T03:17:03.408Z,14.43
2022-12-09T03:19:42.857Z,14.82
2022-12-09T03:22:20.874Z,15.32
2022-12-09T03:24:58.062Z,14.88
2022-12-09T03:27:36.688Z,14.23
2022-12-09T03:30:05.905Z,14.57
2022-12-09T03:32:33.955Z,13.95
2022-12-09T03:35:19.447Z,15.02
2022-12-09T03:37:48.413Z,14.10
2022-12-09T03:40:20.207Z,13.77
2022-12-09T03:42:58.326Z,16.67
2022-12-09T03:45:25.534Z,14.88
2022-12-09T03:47:53.450Z,14.75
2022-12-09T03:50:23.976Z,15.10
2022-12-09T03:53:00.780Z,16.42
2022-12-09T03:55:48.998Z,15.40
2022-12-09T03:58:17.347Z,15.77
2022-12-09T04:00:46.357Z,14.43
2022-12-09T04:03:15.052Z,15.98
2022-12-09T04:05:43.272Z,16.52
2022-12-09T04:08:10.908Z,15.67
2022-12-09T04:10:38.071Z,16.88
2022-12-09T04:13:05.269Z,15.93
2022-12-09T04:15:32.298Z,16.45
2022-12-09T04:17:59.760Z,17.42
2022-12-09T04:20:26.908Z,16.27
2022-12-09T04:22:53.916Z,15.07
2022-12-09T04:25:21.054Z,17.13
2022-12-09T04:27:49.984Z,17.25
2022-12-09T04:30:17.677Z,16.83
2022-12-09T04:32:44.988Z,15.80
2022-12-09T04:35:12.525Z,17.67
2022-12-09T04:37:39.666Z,17.90
2022-12-09T04:40:08.142Z,17.52
2022-12-09T04:42:35.376Z,17.60
2022-12-09T04:45:02.525Z,18.27
2022-12-09T04:47:30.387Z,17.77
2022-12-09T04:49:57.801Z,18.42
2022-12-09T04:52:25.305Z,16.45
2022-12-09T04:54:52.721Z,17.95
2022-12-09T04:57:20.153Z,18.13
2022-12-09T04:59:47.229Z,17.73
2022-12-09T05:02:14.292Z,17.90
2022-12-09T05:04:43.005Z,16.58
2022-12-09T05:07:11.881Z,17.90
2022-12-09T05:09:39.256Z,18.57
2022-12-09T05:12:06.944Z,15.25
2022-12-09T05:14:34.431Z,17.48
2022-12-09T05:17:03.115Z,16.95
2022-12-09T05:19:30.821Z,17.02
2022-12-09T05:21:58.140Z,13.07
2022-12-09T05:24:26.176Z,17.40
2022-12-09T05:26:53.714Z,17.50
2022-12-09T05:29:23.111Z,16.23
2022-12-09T05:31:51.756Z,16.33
2022-12-09T05:34:19.184Z,16.03
2022-12-09T05:36:46.796Z,16.45
2022-12-09T05:39:15.949Z,17.50
2022-12-09T05:41:43.565Z,17.95
2022-12-09T05:44:14.823Z,17.90
2022-12-09T05:46:42.680Z,16.73
2022-12-09T05:49:10.188Z,18.25
2022-12-09T05:51:37.412Z,16.33
2022-12-09T05:54:05.798Z,19.42
2022-12-09T05:56:33.646Z,18.25
2022-12-09T05:59:00.865Z,14.77
2022-12-09T06:01:28.074Z,17.70
2022-12-09T06:03:56.615Z,17.58
2022-12-09T06:06:31.386Z,16.27
2022-12-09T06:09:00.861Z,18.10
2022-12-09T06:11:29.151Z,15.57
2022-12-09T06:13:56.908Z,19.60
2022-12-09T06:16:24.429Z,18.83
2022-12-09T06:18:51.995Z,19.85
2022-12-09T06:21:20.939Z,17.48
2022-12-09T06:23:49.623Z,19.67
2022-12-09T06:26:23.176Z,17.67
2022-12-09T06:28:51.437Z,18.55
2022-12-09T06:31:18.976Z,16.05
2022-12-09T06:33:54.687Z,18.45
2022-12-09T06:36:23.408Z,16.73
2022-12-09T06:38:50.742Z,16.48
2022-12-09T06:41:18.111Z,18.15
2022-12-09T06:43:45.476Z,14.45
2022-12-09T06:46:15.615Z,16.67
2022-12-09T06:48:43.019Z,16.23
2022-12-09T06:51:11.269Z,16.73
2022-12-09T06:53:38.697Z,17.65
2022-12-09T06:56:11.772Z,15.32
2022-12-09T06:58:45.842Z,14.85
2022-12-09T07:01:16.519Z,15.80
2022-12-09T07:03:45.967Z,15.38
2022-12-09T07:06:29.876Z,15.98
2022-12-09T07:09:00.144Z,18.27
2022-12-09T07:11:28.434Z,18.33
2022-12-09T07:13:56.207Z,18.73
2022-12-09T07:16:23.871Z,20.67
2022-12-09T07:18:51.226Z,18.55
2022-12-09T07:21:20.116Z,19.75
2022-12-09T07:23:47.987Z,20.40
2022-12-09T07:26:15.753Z,19.57
2022-12-09T07:28:43.560Z,19.70
2022-12-09T07:31:22.797Z,20.80
2022-12-09T07:33:51.766Z,19.45
2022-12-09T07:36:22.171Z,19.40
2022-12-09T07:38:55.139Z,18.30
2022-12-09T07:41:22.403Z,20.45
2022-12-09T07:43:49.753Z,21.50
2022-12-09T07:46:19.005Z,15.30
2022-12-09T07:48:46.587Z,17.17
2022-12-09T07:51:14.616Z,19.47
2022-12-09T07:53:42.025Z,19.42
2022-12-09T07:56:11.985Z,18.58
2022-12-09T07:58:39.726Z,16.00
2022-12-09T08:01:16.213Z,18.33
2022-12-09T08:03:44.329Z,13.83
2022-12-09T08:06:14.042Z,19.13
2022-12-09T08:08:42.086Z,20.02
2022-12-09T08:11:21.603Z,16.42
2022-12-09T08:13:49.729Z,19.25
2022-12-09T08:16:19.579Z,17.53
2022-12-09T08:18:47.986Z,18.95
2022-12-09T08:21:27.155Z,17.88
2022-12-09T08:24:00.647Z,18.30
2022-12-09T08:26:30.529Z,18.17
2022-12-09T08:28:58.052Z,15.77
2022-12-09T08:31:27.479Z,13.57
2022-12-09T08:34:05.581Z,18.92
2022-12-09T08:36:33.149Z,17.92
2022-12-09T08:39:01.473Z,17.27
2022-12-09T08:41:37.472Z,18.23
2022-12-09T08:44:19.464Z,19.08
2022-12-09T08:46:51.195Z,19.08
2022-12-09T08:49:23.444Z,18.13
2022-12-09T08:51:52.777Z,17.80
2022-12-09T08:54:20.349Z,16.47
2022-12-09T08:56:50.189Z,15.32
2022-12-09T08:59:18.496Z,17.98
2022-12-09T09:01:46.579Z,16.42
2022-12-09T09:04:18.261Z,17.88
2022-12-09T09:06:50.131Z,15.63
2022-12-09T09:09:18.508Z,16.38
2022-12-09T09:11:46.664Z,15.35
2022-12-09T09:14:15.127Z,15.23
2022-12-09T09:16:44.419Z,16.45
2022-12-09T09:19:17.848Z,16.17
2022-12-09T09:21:45.965Z,16.20
2022-12-09T09:24:16.815Z,15.82
2022-12-09T09:26:44.400Z,16.77
2022-12-09T09:29:13.698Z,14.55
2022-12-09T09:31:42.061Z,14.97
2022-12-09T09:34:10.407Z,13.77
2022-12-09T09:36:38.402Z,16.00
2022-12-09T09:39:06.101Z,15.68
2022-12-09T09:41:52.532Z,16.52
2022-12-09T09:44:23.450Z,15.77
2022-12-09T09:47:00.422Z,16.23
2022-12-09T09:49:45.643Z,15.85
2022-12-09T09:52:18.351Z,16.88
2022-12-09T09:54:45.919Z,14.63
2022-12-09T09:57:45.792Z,16.27
2022-12-09T10:00:34.389Z,15.75
2022-12-09T10:03:03.922Z,15.65
2022-12-09T10:05:33.558Z,16.02
2022-12-09T10:08:23.692Z,14.77
2022-12-09T10:10:57.593Z,14.97
2022-12-09T10:13:54.995Z,15.95
2022-12-09T10:20:59.957Z,15.30
2022-12-09T10:25:10.603Z,13.60
2022-12-09T10:28:16.724Z,12.67
2022-12-09T10:31:02.600Z,15.23
2022-12-09T10:34:16.307Z,15.50
2022-12-09T10:36:59.168Z,14.48
2022-12-09T10:39:29.866Z,12.77
2022-12-09T10:42:16.819Z,15.20
2022-12-09T10:44:44.032Z,15.23
2022-12-09T10:47:29.508Z,13.68
2022-12-09T10:50:00.221Z,14.43
2022-12-09T10:52:40.458Z,15.05
2022-12-09T10:55:22.249Z,14.43
2022-12-09T10:57:51.933Z,14.18
2022-12-09T11:00:28.383Z,14.73
2022-12-09T11:02:58.404Z,13.18
2022-12-09T11:05:28.925Z,13.02
2022-12-09T11:07:58.346Z,13.13
2022-12-09T11:10:28.494Z,14.00
2022-12-09T11:13:13.835Z,13.65
2022-12-09T11:15:46.091Z,14.52
2022-12-09T11:18:26.589Z,17.00
2022-12-09T11:21:02.055Z,13.47
2022-12-09T11:23:29.976Z,13.30
2022-12-09T11:26:04.575Z,13.95
2022-12-09T11:28:37.720Z,15.10
2022-12-09T11:31:29.432Z,14.75
2022-12-09T11:34:01.464Z,16.67
2022-12-09T11:36:33.446Z,13.45
2022-12-09T11:39:14.560Z,14.95
2022-12-09T11:42:16.116Z,13.40
2022-12-09T11:45:28.994Z,13.40
2022-12-09T11:48:27.502Z,11.97
2022-12-09T11:50:53.956Z,14.15
2022-12-09T11:53:26.334Z,15.45
2022-12-09T11:56:15.306Z,14.65
2022-12-09T11:58:53.802Z,13.93
2022-12-09T12:01:24.986Z,12.63
2022-12-09T12:04:06.175Z,13.60
2022-12-09T12:06:51.056Z,13.18
2022-12-09T12:09:31.893Z,13.82
2022-12-09T12:12:16.990Z,13.15
2022-12-09T12:14:47.235Z,12.73
2022-12-09T12:17:27.214Z,13.45
2022-12-09T12:19:56.504Z,14.15
2022-12-09T12:23:04.042Z,14.68
2022-12-09T12:25:59.706Z,13.10
2022-12-09T12:28:41.767Z,13.33
2022-12-09T12:31:27.665Z,12.32
2022-12-09T12:34:24.490Z,11.35
2022-12-09T12:36:57.014Z,13.70
2022-12-09T12:39:48.049Z,12.52
2022-12-09T12:42:26.914Z,12.20
2022-12-09T12:45:30.830Z,12.75
2022-12-09T12:48:07.161Z,11.98
2022-12-09T12:50:43.445Z,13.50
2022-12-09T12:53:35.374Z,11.70
2022-12-09T12:56:02.162Z,14.20
2022-12-09T12:58:43.498Z,14.52
2022-12-09T13:01:10.345Z,12.70
2022-12-09T13:03:56.797Z,12.77
2022-12-09T13:06:41.675Z,13.55
2022-12-09T13:09:20.831Z,11.63
2022-12-09T13:12:15.384Z,12.85
2022-12-09T13:14:54.724Z,11.65
2022-12-09T13:17:28.951Z,11.52
2022-12-09T13:20:02.041Z,13.07
2022-12-09T13:23:04.380Z,14.77
2022-12-09T13:25:56.679Z,14.90
2022-12-09T13:28:50.516Z,13.02
2022-12-09T13:31:20.890Z,11.00
2022-12-09T13:34:01.773Z,13.18
2022-12-09T13:36:36.510Z,13.77
2022-12-09T13:39:05.075Z,12.25
2022-12-09T13:41:52.142Z,13.70
2022-12-09T13:44:19.646Z,14.35
2022-12-09T13:46:46.682Z,13.27
2022-12-09T13:49:24.184Z,14.23
2022-12-09T13:51:53.885Z,12.90
2022-12-09T13:54:26.368Z,12.75
2022-12-09T13:57:13.864Z,13.98
2022-12-09T13:59:44.627Z,12.73
2022-12-09T14:02:20.380Z,11.10
2022-12-09T14:05:06.255Z,12.18
2022-12-09T14:07:40.086Z,13.52
2022-12-09T14:10:27.450Z,13.65
2022-12-09T14:12:57.434Z,12.73
2022-12-09T14:15:24.189Z,11.80
2022-12-09T14:17:51.004Z,11.98
2022-12-09T14:21:07.143Z,11.55
2022-12-09T14:23:34.210Z,12.57
2022-12-09T14:26:04.612Z,11.50
2022-12-09T14:28:34.207Z,12.13
2022-12-09T14:31:06.794Z,13.23
2022-12-09T14:33:38.642Z,12.65
2022-12-09T14:36:14.648Z,13.13
2022-12-09T14:39:07.884Z,12.82
2022-12-09T14:41:47.107Z,11.07
2022-12-09T14:44:31.009Z,11.00
2022-12-09T14:47:13.801Z,12.23
2022-12-09T14:49:48.519Z,11.27
2022-12-09T14:52:44.103Z,11.27
2022-12-09T14:55:16.141Z,11.37
2022-12-09T14:57:48.134Z,11.38
2022-12-09T15:00:45.077Z,12.90
2022-12-09T15:03:34.309Z,10.48
2022-12-09T15:06:20.319Z,11.35
2022-12-09T15:08:48.365Z,10.53
2022-12-09T15:11:22.198Z,11.35
2022-12-09T15:13:52.389Z,12.00
2022-12-09T15:16:22.624Z,11.60
2022-12-09T15:18:51.660Z,10.98
2022-12-09T15:21:30.644Z,12.53
2022-12-09T15:24:06.718Z,10.65
2022-12-09T15:26:37.168Z,11.95
2022-12-09T15:29:05.705Z,10.75
2022-12-09T15:31:34.341Z,11.95
2022-12-09T15:34:11.525Z,12.83
2022-12-09T15:36:50.296Z,11.55
2022-12-09T15:39:28.436Z,12.27
2022-12-09T15:42:07.341Z,12.52
2022-12-09T15:44:55.457Z,13.60
2022-12-09T15:47:35.080Z,13.47
2022-12-09T15:50:25.566Z,13.07
2022-12-09T15:53:12.661Z,12.05
2022-12-09T15:55:50.268Z,11.05
2022-12-09T15:58:30.944Z,11.73
2022-12-09T16:00:58.262Z,11.00
2022-12-09T16:03:28.785Z,11.18
2022-12-09T16:06:02.111Z,10.90
2022-12-09T16:08:44.720Z,11.05
2022-12-09T16:11:12.291Z,11.18
2022-12-09T16:14:01.477Z,11.97
2022-12-09T16:16:40.983Z,12.00
2022-12-09T16:19:29.462Z,12.73
2022-12-09T16:22:03.498Z,12.80
2022-12-09T16:24:50.894Z,13.05
2022-12-09T16:27:28.347Z,11.90
2022-12-09T16:29:57.999Z,12.13
2022-12-09T16:32:31.735Z,10.93
2022-12-09T16:35:12.457Z,12.35
2022-12-09T16:38:03.827Z,13.13
2022-12-09T16:40:32.726Z,12.97
2022-12-09T16:43:23.008Z,12.52
2022-12-09T16:45:51.060Z,12.82
2022-12-09T16:48:19.424Z,11.27
2022-12-09T16:51:12.628Z,12.95
2022-12-09T16:53:48.181Z,11.97
2022-12-09T16:56:27.359Z,11.88
2022-12-09T16:58:55.064Z,11.68
2022-12-09T17:01:29.661Z,12.10
2022-12-09T17:04:04.357Z,12.02
2022-12-09T17:06:31.553Z,11.63
2022-12-09T17:08:59.427Z,14.63
2022-12-09T17:11:26.563Z,12.52
2022-12-09T17:13:53.803Z,15.05
2022-12-09T17:16:24.135Z,14.30
2022-12-09T17:18:53.762Z,13.57
2022-12-09T17:21:20.975Z,12.90
2022-12-09T17:23:48.316Z,13.02
2022-12-09T17:26:20.174Z,13.27
2022-12-09T17:28:48.568Z,10.88
2022-12-09T17:31:19.044Z,11.43
2022-12-09T17:33:46.126Z,10.95
2022-12-09T17:36:14.606Z,11.68
2022-12-09T17:38:42.117Z,11.48
2022-12-09T17:41:13.326Z,11.25
2022-12-09T17:43:41.604Z,11.37
2022-12-09T17:46:10.413Z,12.10
2022-12-09T17:48:39.413Z,12.40
2022-12-09T17:51:18.056Z,11.98
2022-12-09T17:53:45.936Z,12.13
2022-12-09T17:56:19.905Z,12.70
2022-12-09T17:58:48.464Z,13.02
2022-12-09T18:01:18.468Z,12.30
2022-12-09T18:04:07.761Z,13.10
2022-12-09T18:06:34.685Z,13.40
2022-12-09T18:09:06.772Z,11.87
2022-12-09T18:11:34.451Z,13.05
2022-12-09T18:14:03.987Z,13.43
2022-12-09T18:16:31.111Z,12.77
2022-12-09T18:19:13.014Z,13.30
2022-12-09T18:21:40.443Z,12.27
2022-12-09T18:24:07.915Z,12.13
2022-12-09T18:26:41.124Z,12.48
2022-12-09T18:29:09.412Z,12.07
2022-12-09T18:31:36.588Z,11.50
2022-12-09T18:34:03.762Z,12.20
2022-12-09T18:36:31.238Z,11.80
2022-12-09T18:38:59.504Z,12.73
2022-12-09T18:41:29.648Z,11.85
2022-12-09T18:43:59.410Z,12.82
2022-12-09T18:46:29.663Z,12.47
2022-12-09T18:49:18.310Z,11.63
2022-12-09T18:51:46.976Z,12.18
2022-12-09T18:54:25.063Z,12.65
2022-12-09T18:56:52.655Z,11.82
2022-12-09T18:59:22.339Z,11.57
2022-12-09T19:01:49.910Z,11.82
2022-12-09T19:04:20.577Z,12.10
2022-12-09T19:06:51.602Z,13.10
2022-12-09T19:09:22.052Z,13.68
2022-12-09T19:11:50.833Z,12.33
2022-12-09T19:14:20.083Z,11.15
2022-12-09T19:16:48.045Z,11.65
2022-12-09T19:19:18.026Z,12.63
2022-12-09T19:21:46.085Z,12.02
2022-12-09T19:24:21.195Z,13.03
2022-12-09T19:26:48.658Z,12.75
2022-12-09T19:29:17.818Z,13.00
2022-12-09T19:31:47.458Z,12.93
2022-12-09T19:34:17.805Z,13.20
2022-12-09T19:36:46.295Z,14.07
2022-12-09T19:39:14.321Z,13.25
2022-12-09T19:42:06.478Z,13.73
2022-12-09T19:47:21.012Z,13.38
2022-12-09T19:49:48.205Z,14.27
2022-12-09T19:52:15.188Z,13.85
2022-12-09T19:54:42.218Z,13.57
2022-12-09T19:57:09.206Z,15.15
2022-12-09T19:59:37.740Z,15.18
2022-12-09T20:02:06.454Z,14.50
2022-12-09T20:04:51.169Z,13.30
2022-12-09T20:07:19.848Z,13.88
2022-12-09T20:09:47.658Z,13.50
2022-12-09T20:12:14.856Z,15.23
2022-12-09T20:14:43.266Z,15.33
2022-12-09T20:17:10.595Z,14.20
2022-12-09T20:19:37.594Z,14.95
2022-12-09T20:22:04.669Z,15.30
2022-12-09T20:24:31.602Z,16.25
2022-12-09T20:27:01.095Z,15.83
2022-12-09T20:29:32.441Z,15.90
2022-12-09T20:32:02.767Z,16.08
2022-12-09T20:34:29.759Z,15.63
2022-12-09T20:36:57.085Z,15.73
2022-12-09T20:39:24.122Z,14.63
2022-12-09T20:41:51.305Z,14.15
2022-12-09T20:44:20.184Z,13.70
2022-12-09T20:46:52.805Z,15.27
2022-12-09T20:49:26.521Z,14.60
2022-12-09T20:51:54.446Z,15.03
2022-12-09T20:54:21.661Z,14.82
2022-12-09T20:56:49.112Z,12.52
2022-12-09T20:59:16.126Z,11.75
2022-12-09T21:01:43.783Z,12.10
2022-12-09T21:04:10.711Z,10.93
2022-12-09T21:06:39.660Z,12.15
2022-12-09T21:09:09.825Z,12.13
2022-12-09T21:11:37.417Z,12.07
2022-12-09T21:14:08.140Z,12.55
2022-12-09T21:16:39.903Z,10.87
2022-12-09T21:19:10.846Z,10.48
2022-12-09T21:21:40.549Z,9.00
2022-12-09T21:24:09.878Z,10.15
2022-12-09T21:26:37.057Z,10.27
2022-12-09T21:29:04.244Z,10.07
2022-12-09T21:31:37.058Z,10.15
2022-12-09T21:34:06.209Z,10.82
2022-12-09T21:36:36.464Z,10.13
2022-12-09T21:39:06.773Z,11.00
2022-12-09T21:41:35.683Z,9.80
2022-12-09T21:44:03.315Z,10.25
2022-12-09T21:46:32.473Z,10.30
2022-12-09T21:49:03.898Z,11.70
2022-12-09T21:51:32.977Z,11.20
2022-12-09T21:54:03.018Z,9.17
2022-12-09T21:56:32.889Z,9.80
2022-12-09T21:59:00.911Z,10.10
2022-12-09T22:01:31.184Z,10.43
2022-12-09T22:04:00.028Z,10.25
2022-12-09T22:06:30.644Z,10.23
2022-12-09T22:09:01.411Z,10.38
2022-12-09T22:11:34.056Z,10.95
2022-12-09T22:14:01.912Z,10.52
2022-12-09T22:16:35.917Z,10.60
2022-12-09T22:19:05.027Z,9.90
2022-12-09T22:21:34.164Z,11.15
2022-12-09T22:24:04.372Z,11.98
2022-12-09T22:26:32.190Z,10.18
2022-12-09T22:29:01.059Z,10.73
2022-12-09T22:31:31.267Z,10.77
2022-12-09T22:34:06.388Z,10.55
2022-12-09T22:36:34.675Z,10.88
2022-12-09T22:39:01.706Z,10.82
2022-12-09T22:41:29.995Z,10.20
2022-12-09T22:43:57.402Z,10.50
2022-12-09T22:46:27.883Z,10.98
2022-12-09T22:49:01.608Z,10.35
2022-12-09T22:51:31.855Z,11.25
2022-12-09T22:53:59.310Z,11.18
2022-12-09T22:56:27.863Z,11.50
2022-12-09T22:58:55.557Z,10.63
2022-12-09T23:01:25.865Z,11.00
2022-12-09T23:03:54.920Z,10.90
2022-12-09T23:06:22.362Z,11.10
2022-12-09T23:08:49.513Z,11.53
2022-12-09T23:11:19.282Z,10.73
2022-12-09T23:13:47.038Z,9.25
2022-12-09T23:16:19.342Z,9.23
2022-12-09T23:18:46.959Z,10.02
2022-12-09T23:21:27.220Z,10.37
2022-12-09T23:24:00.665Z,8.40
2022-12-09T23:26:31.705Z,8.20
2022-12-09T23:29:01.172Z,8.80
2022-12-09T23:31:30.902Z,7.72
2022-12-09T23:33:58.458Z,7.43
2022-12-09T23:36:28.638Z,7.88
2022-12-09T23:38:55.484Z,8.43
2022-12-09T23:41:23.949Z,6.45
2022-12-09T23:43:51.664Z,22.00
2022-12-09T23:46:25.258Z,9.00
2022-12-09T23:48:53.639Z,7.90
2022-12-09T23:51:27.222Z,7.13
2022-12-09T23:53:59.575Z,6.75
2022-12-09T23:56:28.680Z,6.20
2022-12-09T23:59:01.352Z,6.43
